Time;durP1;ratioP1;P1;durP2;ratioP2;P2;SDS_P1;SDS_P2;PMS_P1;PMS_P2;Temp;Humidity;BMP_temperature;BMP_pressure;BME280_temperature;BME280_humidity;BME280_pressure;Samples;Min_cycle;Max_cycle;Signal;HPM_P1;HPM_P2
2023/01/27 00:00:06;;;;;;;3.42;1.63;;;22.20;48.60;;;;;;5021716;28;20087;-72
2023/01/27 00:02:32;;;;;;;3.95;1.88;;;22.10;48.60;;;;;;5021864;28;20057;-72
2023/01/27 00:04:58;;;;;;;2.78;1.52;;;22.10;48.70;;;;;;5016532;28;20025;-73
2023/01/27 00:07:24;;;;;;;3.22;1.50;;;22.10;48.70;;;;;;5020274;28;20059;-72
2023/01/27 00:09:49;;;;;;;3.42;1.63;;;22.10;48.80;;;;;;5028406;28;20021;-72
2023/01/27 00:15:06;;;;;;;2.72;1.50;;;22.00;48.70;;;;;;5020923;28;20069;-72
2023/01/27 00:17:32;;;;;;;2.83;1.60;;;22.00;48.70;;;;;;5020076;28;20071;-73
2023/01/27 00:19:58;;;;;;;2.78;1.50;;;21.90;48.70;;;;;;5020848;28;20033;-73
2023/01/27 00:25:11;;;;;;;2.55;1.45;;;21.90;48.80;;;;;;5017554;28;20044;-72
2023/01/27 00:27:37;;;;;;;3.58;1.45;;;21.80;48.80;;;;;;5020273;28;20021;-72
2023/01/27 00:30:04;;;;;;;2.40;1.40;;;21.80;48.90;;;;;;5020177;28;20041;-72
2023/01/27 00:35:15;;;;;;;2.42;1.30;;;21.70;49.00;;;;;;5019730;28;20079;-72
2023/01/27 00:37:41;;;;;;;2.45;1.30;;;21.70;49.00;;;;;;5017647;28;20486;-72
2023/01/27 00:40:08;;;;;;;2.50;1.40;;;21.70;49.00;;;;;;5019497;28;20124;-73
2023/01/27 00:42:34;;;;;;;2.20;1.17;;;21.70;49.10;;;;;;5017876;28;20033;-72
2023/01/27 00:47:44;;;;;;;2.78;1.30;;;21.60;49.10;;;;;;5018859;28;20076;-73
2023/01/27 00:50:09;;;;;;;3.20;1.40;;;21.60;49.20;;;;;;5017468;28;20030;-72
2023/01/27 00:52:35;;;;;;;2.75;1.52;;;21.50;49.20;;;;;;5015622;28;20454;-72
2023/01/27 00:55:01;;;;;;;2.40;1.50;;;21.50;49.20;;;;;;5016839;28;20465;-72
2023/01/27 00:57:26;;;;;;;2.28;1.30;;;21.50;49.30;;;;;;5018690;28;20076;-72
2023/01/27 00:59:52;;;;;;;2.92;1.40;;;21.50;49.30;;;;;;5018549;28;20125;-72
2023/01/27 01:02:17;;;;;;;2.20;1.20;;;21.40;49.30;;;;;;5015540;28;20033;-73
2023/01/27 01:04:43;;;;;;;2.88;1.70;;;21.40;49.30;;;;;;5017605;28;20119;-72
2023/01/27 01:07:09;;;;;;;2.55;1.15;;;21.40;49.30;;;;;;5018821;28;20101;-72
2023/01/27 01:09:34;;;;;;;2.10;1.20;;;21.40;49.40;;;;;;5017275;28;20469;-72
2023/01/27 01:12:00;;;;;;;2.85;1.50;;;21.30;49.40;;;;;;5016975;28;20029;-72
2023/01/27 01:14:25;;;;;;;2.65;1.50;;;21.30;49.40;;;;;;5032653;28;20052;-73
2023/01/27 01:16:51;;;;;;;2.80;1.45;;;21.30;49.40;;;;;;5017754;28;20442;-72
2023/01/27 01:19:16;;;;;;;1.80;1.15;;;21.30;49.40;;;;;;5016308;28;20037;-72
2023/01/27 01:21:42;;;;;;;2.42;1.40;;;21.30;49.50;;;;;;5016053;28;20080;-72
2023/01/27 01:24:08;;;;;;;2.67;1.38;;;21.30;49.60;;;;;;5016547;28;20107;-72
2023/01/27 01:26:33;;;;;;;2.33;1.25;;;21.20;49.50;;;;;;5016762;28;20022;-73
2023/01/27 01:28:59;;;;;;;1.92;1.23;;;21.20;49.50;;;;;;5017716;28;20121;-73
2023/01/27 01:31:25;;;;;;;2.10;1.30;;;21.20;49.60;;;;;;5021756;28;20485;-72
2023/01/27 01:33:50;;;;;;;2.35;1.20;;;21.20;49.60;;;;;;5021906;28;20087;-72
2023/01/27 01:36:18;;;;;;;2.28;1.35;;;21.10;49.60;;;;;;5017827;28;20362;-72
2023/01/27 01:38:45;;;;;;;2.90;1.30;;;21.10;49.60;;;;;;5019305;28;20030;-72
2023/01/27 01:41:17;;;;;;;2.05;1.27;;;21.10;49.70;;;;;;5017198;28;20026;-72
2023/01/27 01:43:42;;;;;;;2.55;1.38;;;21.10;49.70;;;;;;5016070;28;20049;-72
2023/01/27 01:46:09;;;;;;;2.50;1.30;;;21.00;49.70;;;;;;5016492;28;20473;-73
2023/01/27 01:48:58;;;;;;;2.33;1.35;;;21.00;49.80;;;;;;5020553;28;20022;-73
2023/01/27 01:51:29;;;;;;;2.40;1.27;;;21.00;49.80;;;;;;5016935;28;20425;-72
2023/01/27 01:54:22;;;;;;;2.67;1.40;;;21.00;49.80;;;;;;5017389;28;20504;-73
2023/01/27 01:56:52;;;;;;;2.53;1.40;;;21.00;49.80;;;;;;5016603;28;20045;-72
2023/01/27 01:59:35;;;;;;;2.38;1.25;;;20.90;49.80;;;;;;5022608;28;20342;-72
2023/01/27 02:02:07;;;;;;;2.13;1.10;;;20.90;49.80;;;;;;5021544;28;20523;-72
2023/01/27 02:04:41;;;;;;;1.60;1.00;;;20.90;49.90;;;;;;5022489;28;20052;-72
2023/01/27 02:07:17;;;;;;;2.53;1.27;;;20.90;49.90;;;;;;5020828;28;20032;-72
2023/01/27 02:09:43;;;;;;;1.80;1.20;;;20.90;49.90;;;;;;5020464;28;20064;-72
2023/01/27 02:12:08;;;;;;;2.78;1.30;;;20.80;49.90;;;;;;5027868;28;20121;-73
2023/01/27 02:14:34;;;;;;;2.35;1.30;;;20.90;50.00;;;;;;5018899;28;20436;-72
2023/01/27 02:17:01;;;;;;;2.42;1.30;;;20.80;50.00;;;;;;5023173;28;20469;-73
2023/01/27 02:20:03;;;;;;;1.65;1.10;;;20.80;50.00;;;;;;5020527;28;20098;-73
2023/01/27 02:22:42;;;;;;;2.15;1.20;;;20.80;50.00;;;;;;5022576;28;20087;-73
2023/01/27 02:25:31;;;;;;;2.33;1.20;;;20.80;50.10;;;;;;5016629;28;20034;-72
2023/01/27 02:27:56;;;;;;;;;;;20.70;50.00;;;;;;5025905;28;20125;-73
2023/01/27 02:30:22;;;;;;;2.53;1.08;;;20.70;50.00;;;;;;5034928;28;19988;-73
2023/01/27 02:32:48;;;;;;;1.88;1.10;;;20.70;50.10;;;;;;5027898;28;20429;-73
2023/01/27 02:35:19;;;;;;;1.50;1.00;;;20.70;50.10;;;;;;5021009;28;20034;-72
2023/01/27 02:37:47;;;;;;;2.40;1.35;;;20.70;50.10;;;;;;5019491;28;20548;-72
2023/01/27 02:40:13;;;;;;;1.80;1.10;;;20.70;50.20;;;;;;5018879;28;20389;-73
2023/01/27 02:42:39;;;;;;;1.60;1.10;;;20.60;50.20;;;;;;5020693;28;20062;-72
2023/01/27 02:45:05;;;;;;;2.55;1.17;;;20.60;50.20;;;;;;5024736;28;20056;-73
2023/01/27 02:47:30;;;;;;;1.92;1.00;;;20.60;50.20;;;;;;5021849;28;20040;-72
2023/01/27 02:49:56;;;;;;;1.85;1.10;;;20.60;50.70;;;;;;5021270;28;20025;-72
2023/01/27 02:52:22;;;;;;;2.25;1.10;;;20.60;50.30;;;;;;5021343;28;20072;-72
2023/01/27 02:54:48;;;;;;;1.67;1.10;;;20.60;50.30;;;;;;5020496;28;20021;-73
2023/01/27 02:57:13;;;;;;;1.67;1.08;;;20.60;50.30;;;;;;5017765;28;20072;-72
2023/01/27 02:59:39;;;;;;;1.67;1.10;;;20.50;50.30;;;;;;5019350;28;20427;-73
2023/01/27 03:02:05;;;;;;;2.17;1.20;;;20.50;50.30;;;;;;5020395;28;20033;-73
2023/01/27 03:04:31;;;;;;;2.05;1.20;;;20.50;50.30;;;;;;5020812;28;20033;-72
2023/01/27 03:06:57;;;;;;;2.05;1.10;;;20.50;50.30;;;;;;5019892;28;20068;-72
2023/01/27 03:09:23;;;;;;;1.90;1.20;;;20.50;50.40;;;;;;5019299;28;20054;-73
2023/01/27 03:20:01;;;;;;;2.60;1.20;;;20.40;50.50;;;;;;5016003;28;20091;-72
2023/01/27 03:22:26;;;;;;;2.00;1.05;;;20.40;50.50;;;;;;5020365;28;20113;-72
2023/01/27 03:24:52;;;;;;;1.75;1.10;;;20.40;50.50;;;;;;5018991;28;20040;-72
2023/01/27 03:27:18;;;;;;;1.52;0.90;;;20.40;50.60;;;;;;5018126;28;20025;-73
2023/01/27 03:29:56;;;;;;;2.30;1.25;;;20.40;50.60;;;;;;5036039;28;20053;-73
2023/01/27 03:32:28;;;;;;;2.22;1.00;;;20.40;50.60;;;;;;5017392;28;20105;-72
2023/01/27 03:34:56;;;;;;;1.60;1.00;;;20.30;50.60;;;;;;5016104;28;20025;-73
2023/01/27 03:48:22;;;;;;;1.15;0.80;;;20.30;51.20;;;;;;5020013;28;20539;-73
2023/01/27 03:50:52;;;;;;;1.67;1.00;;;20.30;50.70;;;;;;5018841;28;20108;-73
2023/01/27 03:53:21;;;;;;;1.88;1.20;;;20.30;50.70;;;;;;5026838;28;20076;-73
2023/01/27 03:55:52;;;;;;;1.92;1.10;;;20.30;50.80;;;;;;5018160;28;20049;-73
2023/01/27 03:58:25;;;;;;;1.05;0.85;;;20.30;50.80;;;;;;5019271;28;20117;-73
2023/01/27 04:00:56;;;;;;;1.33;0.90;;;20.20;50.80;;;;;;5023279;28;20511;-73
2023/01/27 04:08:58;;;;;;;2.10;1.05;;;20.20;50.80;;;;;;5017710;28;20044;-73
2023/01/27 04:14:09;;;;;;;1.20;0.80;;;20.20;50.80;;;;;;5018481;28;20114;-73
2023/01/27 04:16:36;;;;;;;0.95;0.77;;;20.20;50.80;;;;;;5019634;28;20029;-72
2023/01/27 04:19:03;;;;;;;0.82;0.70;;;20.20;50.80;;;;;;5018837;28;20033;-73
2023/01/27 04:21:29;;;;;;;1.70;1.10;;;20.20;50.80;;;;;;5020246;28;20034;-73
2023/01/27 04:23:55;;;;;;;1.63;0.95;;;20.20;51.30;;;;;;5020956;28;20045;-73
2023/01/27 04:26:22;;;;;;;1.10;0.70;;;20.20;50.80;;;;;;5023406;28;20041;-72
2023/01/27 04:28:48;;;;;;;1.23;0.90;;;20.20;50.80;;;;;;5019164;28;20033;-73
2023/01/27 04:31:14;;;;;;;1.25;0.80;;;20.20;50.80;;;;;;5015035;28;20045;-73
2023/01/27 04:33:41;;;;;;;1.60;0.88;;;20.20;50.80;;;;;;5019732;28;20041;-73
2023/01/27 04:36:07;;;;;;;1.23;0.82;;;20.20;50.80;;;;;;5018408;28;20473;-72
2023/01/27 04:38:33;;;;;;;1.17;0.82;;;20.20;50.80;;;;;;5020037;28;20116;-72
2023/01/27 04:40:59;;;;;;;0.93;0.70;;;20.20;50.90;;;;;;5018337;28;20455;-73
2023/01/27 04:43:24;;;;;;;1.35;0.88;;;20.20;50.90;;;;;;5022170;28;20029;-73
2023/01/27 04:45:50;;;;;;;0.98;0.75;;;20.20;50.90;;;;;;5018158;28;20384;-72
2023/01/27 04:48:16;;;;;;;1.30;0.85;;;20.20;50.90;;;;;;5018528;28;20026;-72
2023/01/27 04:50:41;;;;;;;1.10;0.70;;;20.20;51.00;;;;;;5017928;28;20033;-73
2023/01/27 04:53:07;;;;;;;1.77;0.90;;;20.20;51.10;;;;;;5019012;28;20466;-72
2023/01/27 04:55:32;;;;;;;1.40;0.80;;;20.20;51.10;;;;;;5016747;28;20038;-73
2023/01/27 04:57:58;;;;;;;1.23;0.80;;;20.20;51.20;;;;;;5020293;28;20040;-72
2023/01/27 05:00:24;;;;;;;1.45;0.93;;;20.10;51.10;;;;;;5013946;28;20030;-73
2023/01/27 05:02:49;;;;;;;1.30;0.82;;;20.10;51.00;;;;;;5015751;28;20029;-73
2023/01/27 05:05:15;;;;;;;1.33;0.88;;;20.10;51.00;;;;;;5017671;28;20095;-73
2023/01/27 05:07:41;;;;;;;1.17;0.80;;;20.10;51.10;;;;;;5016973;28;20414;-73
2023/01/27 05:10:07;;;;;;;1.35;0.90;;;20.10;51.10;;;;;;5019288;28;20032;-72
2023/01/27 05:12:33;;;;;;;1.17;0.80;;;20.20;51.10;;;;;;5018785;28;20041;-73
2023/01/27 05:14:58;;;;;;;1.40;0.80;;;20.10;51.10;;;;;;5020532;28;20365;-73
2023/01/27 05:17:26;;;;;;;1.13;0.80;;;20.10;51.10;;;;;;5017870;28;20057;-73
2023/01/27 05:19:52;;;;;;;1.17;0.80;;;20.10;51.10;;;;;;5018252;28;20043;-73
2023/01/27 05:22:17;;;;;;;0.90;0.70;;;20.10;51.10;;;;;;5020642;28;20033;-72
2023/01/27 05:24:43;;;;;;;0.98;0.80;;;20.10;51.10;;;;;;5033929;28;20103;-73
2023/01/27 05:27:08;;;;;;;1.33;0.80;;;20.10;51.20;;;;;;5015880;28;20041;-72
2023/01/27 05:29:34;;;;;;;1.58;0.80;;;20.10;51.20;;;;;;5018622;28;20076;-73
2023/01/27 05:32:00;;;;;;;1.60;1.00;;;20.10;51.20;;;;;;5017944;28;20505;-73
2023/01/27 05:34:25;;;;;;;1.50;0.82;;;20.10;51.20;;;;;;5021189;28;20076;-73
2023/01/27 05:36:51;;;;;;;1.00;0.73;;;20.10;51.20;;;;;;5023090;28;20044;-73
2023/01/27 05:39:16;;;;;;;0.82;0.70;;;20.10;51.30;;;;;;5024151;28;20033;-73
2023/01/27 05:41:42;;;;;;;1.38;0.90;;;20.10;51.30;;;;;;5023446;28;20030;-72
2023/01/27 05:44:11;;;;;;;1.25;0.80;;;20.10;51.30;;;;;;5023653;28;20342;-72
2023/01/27 05:46:38;;;;;;;1.42;0.82;;;20.10;51.40;;;;;;5021577;28;20026;-73
2023/01/27 05:49:04;;;;;;;1.45;0.90;;;20.10;51.40;;;;;;5020854;28;20452;-73
2023/01/27 05:51:36;;;;;;;1.27;0.88;;;20.10;51.40;;;;;;5023462;28;20112;-73
2023/01/27 05:54:03;;;;;;;1.30;0.88;;;20.10;51.40;;;;;;5020009;28;20097;-72
2023/01/27 05:56:28;;;;;;;2.20;0.98;;;20.10;51.40;;;;;;5020727;28;20416;-72
2023/01/27 05:58:56;;;;;;;1.25;0.80;;;20.10;51.50;;;;;;5021982;28;20029;-73
2023/01/27 06:01:24;;;;;;;2.50;0.90;;;20.10;51.50;;;;;;5022481;28;20027;-72
2023/01/27 06:03:49;;;;;;;1.52;0.90;;;20.00;51.50;;;;;;5026636;28;20076;-73
2023/01/27 06:06:17;;;;;;;1.10;0.85;;;20.00;51.50;;;;;;5019136;28;20371;-73
2023/01/27 06:08:45;;;;;;;1.40;1.00;;;20.00;51.50;;;;;;5018895;28;20080;-73
2023/01/27 06:11:11;;;;;;;1.40;1.00;;;20.00;51.60;;;;;;5021480;28;20462;-73
2023/01/27 06:13:38;;;;;;;1.10;0.80;;;20.00;51.60;;;;;;5019789;28;20103;-72
2023/01/27 06:16:06;;;;;;;1.27;0.88;;;20.00;51.70;;;;;;5019230;28;20022;-73
2023/01/27 06:18:32;;;;;;;1.33;0.90;;;20.00;51.70;;;;;;5023655;28;20063;-73
2023/01/27 06:20:59;;;;;;;1.55;0.90;;;20.00;51.70;;;;;;5024285;28;20523;-73
2023/01/27 06:23:26;;;;;;;2.45;1.15;;;20.00;51.80;;;;;;5020650;28;20033;-72
2023/01/27 06:25:52;;;;;;;1.30;0.90;;;19.90;51.80;;;;;;5022212;28;20053;-73
2023/01/27 06:28:18;;;;;;;1.52;1.10;;;19.90;51.80;;;;;;5021236;28;20056;-73
2023/01/27 06:30:44;;;;;;;1.52;0.90;;;20.00;51.80;;;;;;5021451;28;20026;-73
2023/01/27 06:33:10;;;;;;;0.95;0.70;;;19.90;51.80;;;;;;5021139;28;20025;-73
2023/01/27 06:35:37;;;;;;;1.75;0.88;;;19.90;51.80;;;;;;5030856;28;20021;-74
2023/01/27 06:38:05;;;;;;;1.50;0.90;;;20.00;52.20;;;;;;5024741;28;20040;-73
2023/01/27 06:40:32;;;;;;;2.45;1.42;;;20.10;52.30;;;;;;5019863;28;20021;-73
2023/01/27 06:42:58;;;;;;;2.20;1.05;;;20.20;52.30;;;;;;5020463;28;20030;-75
2023/01/27 06:45:24;;;;;;;2.40;1.25;;;20.20;52.00;;;;;;5023332;28;20053;-77
2023/01/27 06:47:55;;;;;;;2.10;1.20;;;20.30;51.90;;;;;;5022621;28;20393;-75
2023/01/27 06:50:20;;;;;;;2.42;1.20;;;20.50;51.70;;;;;;5021160;28;20041;-74
2023/01/27 06:52:46;;;;;;;2.30;1.20;;;20.60;51.50;;;;;;5026943;28;20033;-76
2023/01/27 06:55:12;;;;;;;2.40;1.30;;;20.70;51.30;;;;;;5024432;28;20033;-75
2023/01/27 06:57:37;;;;;;;2.20;1.00;;;20.80;51.10;;;;;;5020529;28;20485;-73
2023/01/27 07:00:04;;;;;;;2.25;1.10;;;20.90;50.90;;;;;;5020850;28;20033;-73
2023/01/27 07:02:29;;;;;;;2.30;1.33;;;21.00;50.80;;;;;;5020016;28;20121;-74
2023/01/27 07:04:55;;;;;;;1.92;1.20;;;21.00;50.60;;;;;;5018352;28;20126;-75
2023/01/27 07:07:21;;;;;;;2.20;1.17;;;21.10;50.50;;;;;;5023033;28;20112;-74
2023/01/27 07:09:46;;;;;;;3.42;1.33;;;21.20;50.30;;;;;;5022198;28;20040;-74
2023/01/27 07:12:12;;;;;;;2.78;1.30;;;21.30;50.20;;;;;;5021992;28;20101;-75
2023/01/27 07:14:38;;;;;;;2.92;1.25;;;21.30;50.10;;;;;;5021500;28;20018;-74
2023/01/27 07:17:03;;;;;;;2.38;1.20;;;21.40;49.90;;;;;;5020638;28;20037;-74
2023/01/27 07:19:29;;;;;;;3.90;1.60;;;21.50;50.00;;;;;;5033425;28;20041;-74
2023/01/27 07:21:54;;;;;;;2.28;1.20;;;21.50;49.70;;;;;;5021294;28;20033;-76
2023/01/27 07:24:20;;;;;;;2.55;1.30;;;21.60;49.50;;;;;;5021306;28;20076;-72
2023/01/27 07:26:46;;;;;;;2.30;1.20;;;21.50;49.50;;;;;;5017985;28;20531;-72
2023/01/27 07:29:12;;;;;;;2.90;1.30;;;21.50;49.50;;;;;;5021670;28;20083;-72
2023/01/27 07:31:38;;;;;;;2.33;1.27;;;21.50;49.50;;;;;;5021344;28;20022;-72
2023/01/27 07:34:04;;;;;;;2.95;1.30;;;21.50;49.40;;;;;;5022214;28;20044;-72
2023/01/27 07:36:29;;;;;;;2.17;1.25;;;21.50;49.30;;;;;;5023718;28;20876;-72
2023/01/27 07:38:55;;;;;;;3.38;1.70;;;21.50;49.30;;;;;;5019009;28;20083;-73
2023/01/27 07:41:21;;;;;;;2.00;1.17;;;21.50;49.20;;;;;;5019274;28;20544;-72
2023/01/27 07:43:47;;;;;;;2.25;1.17;;;21.50;49.20;;;;;;5016808;28;20033;-72
2023/01/27 07:46:13;;;;;;;2.10;0.93;;;21.50;49.10;;;;;;5018907;28;20026;-72
2023/01/27 07:48:39;;;;;;;2.25;1.00;;;21.60;49.10;;;;;;5019611;28;20057;-72
2023/01/27 07:51:04;;;;;;;2.33;1.10;;;21.50;49.10;;;;;;5022513;28;20025;-72
2023/01/27 07:53:30;;;;;;;2.35;1.13;;;21.50;49.60;;;;;;5020292;28;20098;-72
2023/01/27 07:55:59;;;;;;;1.83;1.00;;;21.50;49.10;;;;;;5021796;28;20030;-72
2023/01/27 07:58:24;;;;;;;1.35;0.90;;;21.50;49.10;;;;;;5036617;28;20389;-75
2023/01/27 08:00:50;;;;;;;2.30;1.00;;;21.50;49.10;;;;;;5024914;28;20034;-72
2023/01/27 08:03:22;;;;;;;1.75;0.98;;;21.50;49.10;;;;;;5037170;28;20137;-73
2023/01/27 08:05:47;;;;;;;1.70;0.95;;;21.40;49.00;;;;;;5018475;28;20061;-73
2023/01/27 08:08:13;;;;;;;2.22;1.20;;;21.40;49.00;;;;;;5022287;28;20057;-72
2023/01/27 08:10:39;;;;;;;1.85;1.08;;;21.40;49.10;;;;;;5021214;28;20057;-73
2023/01/27 08:13:04;;;;;;;1.65;0.90;;;21.40;49.10;;;;;;5022539;28;20033;-73
2023/01/27 08:15:30;;;;;;;2.22;1.00;;;21.40;49.10;;;;;;5018756;28;20030;-73
2023/01/27 08:17:57;;;;;;;1.98;0.90;;;21.40;49.20;;;;;;5019653;28;20421;-72
2023/01/27 08:20:24;;;;;;;1.55;0.90;;;21.40;49.20;;;;;;5016771;28;20030;-73
2023/01/27 08:22:50;;;;;;;1.67;1.05;;;21.40;49.20;;;;;;5020367;28;20591;-72
2023/01/27 08:25:16;;;;;;;1.80;1.05;;;21.30;49.20;;;;;;5018859;28;20120;-73
2023/01/27 08:27:41;;;;;;;1.60;0.90;;;21.30;49.10;;;;;;5020349;28;20187;-73
2023/01/27 08:30:08;;;;;;;1.48;0.90;;;21.30;49.20;;;;;;5022186;28;20030;-73
2023/01/27 08:32:34;;;;;;;1.92;1.00;;;21.30;49.20;;;;;;5018287;28;20041;-72
2023/01/27 08:34:59;;;;;;;1.55;1.00;;;21.30;49.20;;;;;;5020516;28;20377;-73
2023/01/27 08:37:25;;;;;;;2.05;1.00;;;21.30;49.20;;;;;;5022138;28;20030;-72
2023/01/27 08:39:51;;;;;;;2.08;1.25;;;21.30;49.20;;;;;;5017136;28;20453;-73
2023/01/27 08:42:16;;;;;;;2.38;1.02;;;21.30;49.30;;;;;;5022256;28;20037;-73
2023/01/27 08:44:42;;;;;;;1.63;0.90;;;21.20;49.20;;;;;;5020546;28;20049;-72
2023/01/27 08:47:07;;;;;;;1.92;1.10;;;21.20;49.20;;;;;;5026450;28;20037;-74
2023/01/27 08:49:33;;;;;;;1.70;0.90;;;21.20;49.30;;;;;;5037227;28;20025;-72
2023/01/27 08:51:59;;;;;;;1.55;0.90;;;21.20;49.30;;;;;;5025175;28;20493;-73
2023/01/27 08:54:24;;;;;;;1.80;1.00;;;21.20;49.30;;;;;;5019453;28;20032;-72
2023/01/27 08:56:50;;;;;;;2.78;1.00;;;21.20;49.30;;;;;;5019711;28;20026;-73
2023/01/27 08:59:16;;;;;;;2.45;1.00;;;21.20;49.30;;;;;;5020494;28;20078;-72
2023/01/27 09:01:41;;;;;;;2.47;1.40;;;21.20;49.30;;;;;;5026394;28;20044;-73
2023/01/27 09:04:07;;;;;;;1.58;0.95;;;21.20;49.30;;;;;;5019089;28;20034;-72
2023/01/27 09:06:33;;;;;;;2.00;1.20;;;21.10;49.30;;;;;;5017459;28;20029;-73
2023/01/27 09:09:08;;;;;;;2.38;1.02;;;21.10;49.30;;;;;;5021426;28;20025;-73
2023/01/27 09:11:35;;;;;;;2.08;1.02;;;21.10;49.30;;;;;;5031796;28;20034;-71
2023/01/27 09:14:01;;;;;;;2.00;1.10;;;21.10;49.30;;;;;;5016972;28;20022;-71
2023/01/27 09:16:27;;;;;;;1.77;1.00;;;21.10;49.70;;;;;;5032397;28;20393;-71
2023/01/27 09:18:53;;;;;;;1.88;0.93;;;21.10;49.60;;;;;;5017143;28;20176;-72
2023/01/27 09:21:19;;;;;;;2.00;0.90;;;21.10;49.50;;;;;;5017458;28;20133;-71
2023/01/27 09:23:48;;;;;;;2.35;1.10;;;21.10;49.40;;;;;;5017055;28;20084;-70
2023/01/27 09:26:13;;;;;;;2.17;1.10;;;21.10;49.50;;;;;;5017428;28;20026;-74
2023/01/27 09:28:39;;;;;;;2.53;1.08;;;21.10;49.70;;;;;;5018014;28;20038;-72
2023/01/27 09:31:07;;;;;;;1.90;1.23;;;21.10;49.70;;;;;;5018882;28;20046;-74
2023/01/27 09:33:33;;;;;;;2.67;1.20;;;21.10;49.60;;;;;;5018651;28;20053;-74
2023/01/27 09:36:13;;;;;;;1.95;1.20;;;21.20;49.60;;;;;;5038001;28;20108;-75
2023/01/27 09:38:47;;;;;;;2.58;1.10;;;21.20;49.50;;;;;;5021371;28;20033;-77
2023/01/27 09:41:38;;;;;;;3.03;1.30;;;21.30;49.50;;;;;;5019292;28;20535;-73
2023/01/27 09:44:41;;;;;;;4.07;1.50;;;21.30;49.50;;;;;;5018082;28;20041;-73
2023/01/27 09:47:31;;;;;;;3.10;1.33;;;21.30;49.40;;;;;;5016587;28;20393;-72
2023/01/27 09:50:29;;;;;;;3.42;1.20;;;21.30;49.40;;;;;;5017342;28;20052;-73
2023/01/27 09:53:11;;;;;;;2.85;1.20;;;21.30;49.40;;;;;;5008009;28;20034;-73
2023/01/27 09:55:58;;;;;;;3.63;1.20;;;21.30;49.30;;;;;;5017781;28;20056;-72
2023/01/27 09:58:48;;;;;;;1.95;1.08;;;21.30;49.30;;;;;;5017072;28;20053;-72
2023/01/27 10:01:48;;;;;;;2.45;1.20;;;21.30;49.30;;;;;;5019654;28;20053;-72
2023/01/27 10:04:43;;;;;;;2.60;1.33;;;21.30;49.40;;;;;;5015883;28;20037;-72
2023/01/27 10:07:43;;;;;;;1.35;0.90;;;21.30;49.30;;;;;;5006193;28;20038;-72
2023/01/27 10:10:43;;;;;;;2.17;1.10;;;21.30;49.30;;;;;;5019538;28;20034;-72
2023/01/27 10:13:23;;;;;;;2.00;1.10;;;21.30;49.20;;;;;;5018645;28;20036;-72
2023/01/27 10:16:12;;;;;;;2.33;1.00;;;21.30;49.30;;;;;;5020194;28;20094;-73
2023/01/27 10:19:08;;;;;;;3.58;1.13;;;21.30;49.20;;;;;;5016196;28;20921;-72
2023/01/27 10:21:37;;;;;;;2.58;1.00;;;21.30;49.20;;;;;;5024234;28;20597;-72
2023/01/27 10:24:08;;;;;;;2.28;1.20;;;21.30;49.20;;;;;;5034718;28;20460;-72
2023/01/27 10:26:46;;;;;;;2.33;1.10;;;21.20;49.20;;;;;;5020521;28;20058;-72
2023/01/27 10:29:27;;;;;;;1.92;1.00;;;21.20;49.10;;;;;;5026445;28;20117;-72
2023/01/27 10:32:20;;;;;;;2.03;1.10;;;21.20;49.20;;;;;;5019862;28;20785;-72
2023/01/27 10:35:17;;;;;;;2.28;1.00;;;21.20;49.20;;;;;;5017810;28;20069;-72
2023/01/27 10:38:09;;;;;;;2.47;1.00;;;21.20;49.30;;;;;;5024949;28;20033;-72
2023/01/27 10:40:35;;;;;;;2.20;0.95;;;21.20;49.30;;;;;;5019013;28;20026;-72
2023/01/27 10:43:29;;;;;;;2.33;1.13;;;21.10;49.20;;;;;;5021775;28;20469;-72
2023/01/27 10:46:02;;;;;;;2.03;0.90;;;21.10;49.30;;;;;;5022080;28;20163;-73
2023/01/27 10:48:55;;;;;;;2.80;1.20;;;21.10;49.30;;;;;;5024812;28;20026;-72
2023/01/27 10:51:36;;;;;;;1.90;0.90;;;21.10;49.40;;;;;;5023050;28;20519;-72
2023/01/27 10:54:14;;;;;;;2.97;1.20;;;21.10;49.40;;;;;;5022333;28;20432;-73
2023/01/27 10:56:42;;;;;;;2.25;1.05;;;21.10;49.50;;;;;;5019599;28;20500;-72
2023/01/27 10:59:30;;;;;;;1.70;1.00;;;21.00;49.50;;;;;;5023071;28;20075;-73
2023/01/27 11:02:25;;;;;;;2.80;0.95;;;21.10;49.50;;;;;;5023242;28;20384;-72
2023/01/27 11:04:58;;;;;;;1.98;1.10;;;21.00;49.50;;;;;;5024553;28;20029;-72
2023/01/27 11:07:24;;;;;;;1.83;1.00;;;21.00;49.60;;;;;;5021325;28;20064;-72
2023/01/27 11:10:14;;;;;;;2.67;1.00;;;21.00;49.60;;;;;;5022862;28;20033;-72
2023/01/27 11:12:52;;;;;;;1.95;1.10;;;21.00;49.60;;;;;;5020897;28;20109;-72
2023/01/27 11:15:32;;;;;;;2.10;1.10;;;21.00;49.60;;;;;;5022250;28;20117;-72
2023/01/27 11:18:27;;;;;;;2.17;1.13;;;21.00;49.70;;;;;;5020259;28;20060;-72
2023/01/27 11:20:58;;;;;;;2.90;1.20;;;21.00;49.70;;;;;;5022690;28;20025;-72
2023/01/27 11:23:38;;;;;;;2.22;1.05;;;21.00;49.80;;;;;;5021602;28;20044;-72
2023/01/27 11:26:41;;;;;;;2.63;1.15;;;21.00;49.80;;;;;;5018031;28;20024;-72
2023/01/27 11:29:28;;;;;;;1.95;1.20;;;20.90;49.70;;;;;;5020177;28;20026;-72
2023/01/27 11:32:21;;;;;;;2.42;1.40;;;21.00;49.80;;;;;;5018828;28;20364;-72
2023/01/27 11:35:10;;;;;;;1.92;1.13;;;20.90;49.80;;;;;;5024253;28;20037;-72
2023/01/27 11:37:54;;;;;;;2.60;1.10;;;20.90;49.80;;;;;;5018628;28;20022;-72
2023/01/27 11:40:36;;;;;;;3.35;1.35;;;20.90;49.90;;;;;;5022522;28;20056;-72
2023/01/27 11:43:03;;;;;;;2.88;1.27;;;20.90;49.90;;;;;;5020136;28;20371;-72
2023/01/27 11:45:38;;;;;;;1.70;1.13;;;20.90;49.90;;;;;;5025025;28;20453;-73
2023/01/27 11:48:09;;;;;;;1.63;1.05;;;20.90;49.90;;;;;;5028149;28;20116;-72
2023/01/27 11:50:35;;;;;;;2.15;1.20;;;20.90;50.00;;;;;;5019885;28;20034;-72
2023/01/27 11:53:17;;;;;;;3.17;1.00;;;20.90;50.00;;;;;;5018390;28;20045;-72
2023/01/27 11:55:52;;;;;;;2.17;1.10;;;20.80;49.90;;;;;;5020177;28;20026;-72
2023/01/27 11:58:31;;;;;;;2.70;1.30;;;20.90;50.00;;;;;;5023087;28;20029;-72
2023/01/27 12:01:00;;;;;;;2.00;1.10;;;20.90;50.00;;;;;;5021353;28;20535;-72
2023/01/27 12:03:29;;;;;;;1.80;1.00;;;20.90;50.10;;;;;;5017237;28;20025;-72
2023/01/27 12:06:01;;;;;;;1.88;0.95;;;20.90;50.10;;;;;;5019776;28;20064;-72
2023/01/27 12:08:43;;;;;;;2.88;1.30;;;20.90;50.20;;;;;;5022924;28;20033;-72
2023/01/27 12:11:27;;;;;;;2.65;1.20;;;20.90;50.30;;;;;;5022174;28;20099;-72
2023/01/27 12:13:54;;;;;;;2.45;1.20;;;20.80;50.30;;;;;;5015966;28;20032;-72
2023/01/27 12:16:22;;;;;;;3.08;1.52;;;20.80;50.30;;;;;;5027109;28;20445;-72
2023/01/27 12:18:55;;;;;;;2.55;1.40;;;20.80;50.30;;;;;;5021897;28;20445;-72
2023/01/27 12:21:31;;;;;;;2.22;1.10;;;20.80;50.40;;;;;;5019457;28;20034;-72
2023/01/27 12:23:58;;;;;;;1.90;1.20;;;20.80;50.40;;;;;;5015940;28;20048;-72
2023/01/27 12:26:43;;;;;;;2.17;1.10;;;20.80;50.40;;;;;;5020268;28;20037;-72
2023/01/27 12:29:21;;;;;;;3.13;1.35;;;20.80;50.40;;;;;;5021515;28;20021;-72
2023/01/27 12:31:50;;;;;;;2.50;1.30;;;20.80;50.40;;;;;;5018139;28;20045;-72
2023/01/27 12:34:42;;;;;;;5.38;1.40;;;20.80;50.40;;;;;;5019838;28;20469;-73
2023/01/27 12:37:21;;;;;;;2.80;1.10;;;20.80;50.40;;;;;;5021806;28;20100;-72
2023/01/27 12:39:59;;;;;;;2.90;1.20;;;20.80;50.50;;;;;;5016677;28;20038;-72
2023/01/27 12:42:43;;;;;;;2.00;1.10;;;20.80;50.40;;;;;;5019294;28;20037;-72
2023/01/27 12:45:19;;;;;;;1.92;1.10;;;20.80;50.70;;;;;;5018919;28;20452;-72
2023/01/27 12:47:59;;;;;;;2.80;1.30;;;20.80;50.50;;;;;;5020241;28;20029;-72
2023/01/27 12:50:30;;;;;;;2.17;1.10;;;20.80;50.50;;;;;;5018832;28;20393;-72
2023/01/27 12:53:03;;;;;;;3.28;1.75;;;20.80;50.50;;;;;;5016897;28;20022;-72
2023/01/27 12:55:39;;;;;;;2.08;1.10;;;20.80;50.50;;;;;;5027785;28;20033;-72
2023/01/27 12:58:04;;;;;;;2.00;1.23;;;20.80;50.40;;;;;;5021212;28;20501;-72
2023/01/27 13:00:31;;;;;;;2.63;1.20;;;20.80;50.40;;;;;;5020179;28;20051;-72
2023/01/27 13:03:05;;;;;;;1.75;1.08;;;20.70;50.40;;;;;;5021689;28;20037;-72
2023/01/27 13:05:36;;;;;;;1.88;1.30;;;20.80;50.50;;;;;;5018652;28;20030;-72
2023/01/27 13:08:02;;;;;;;3.10;1.30;;;20.80;50.40;;;;;;5019111;28;20026;-72
2023/01/27 13:10:28;;;;;;;2.47;1.10;;;20.80;50.40;;;;;;5018406;28;20026;-72
2023/01/27 13:12:56;;;;;;;2.15;1.30;;;20.70;50.40;;;;;;5020761;28;20037;-72
2023/01/27 13:15:29;;;;;;;2.03;1.13;;;20.70;50.50;;;;;;5018690;28;20030;-72
2023/01/27 13:17:57;;;;;;;3.83;1.38;;;20.80;50.60;;;;;;5018335;28;20108;-74
2023/01/27 13:20:36;;;;;;;2.05;1.25;;;20.90;50.50;;;;;;5017826;28;20036;-72
2023/01/27 13:23:10;;;;;;;2.95;1.60;;;21.00;50.30;;;;;;5019296;28;20034;-71
2023/01/27 13:25:55;;;;;;;4.15;1.35;;;21.10;50.20;;;;;;5021569;28;20388;-72
2023/01/27 13:28:27;;;;;;;2.58;1.20;;;21.20;50.20;;;;;;5023146;28;20493;-72
2023/01/27 13:31:01;;;;;;;3.05;1.20;;;21.30;49.80;;;;;;5019842;28;20029;-72
2023/01/27 13:33:33;;;;;;;4.20;1.20;;;21.30;49.70;;;;;;5017268;28;20033;-73
2023/01/27 13:36:26;;;;;;;2.88;1.40;;;21.30;49.70;;;;;;5016248;28;20017;-72
2023/01/27 13:39:16;;;;;;;2.88;1.50;;;21.30;49.70;;;;;;5035942;28;20508;-72
2023/01/27 13:41:48;;;;;;;3.50;1.60;;;21.30;49.60;;;;;;5018812;28;20034;-72
2023/01/27 13:44:37;;;;;;;3.65;1.40;;;21.30;49.60;;;;;;5019641;28;20076;-72